This is the latest recevied weather packets stored in our database for station/object KD4KKF. If no packets are shown the sender has not sent any weather packets the latest 10 day(s).
| Time | Temp. | Humidity | Pressure | Rain* | Wind** | Luminosity | Snow |
|---|---|---|---|---|---|---|---|
| 1777747979 | 20.56° C | 38% | 1015.7 hPa | 0 mm | - | 859 W/m² | - |
| 1777747675 | 20° C | 38% | 1015.9 hPa | 0 mm | - | 800 W/m² | - |
| 1777747371 | 20° C | 44% | 1015.8 hPa | 0 mm | - | 174 W/m² | - |
| 1777747068 | 20° C | 38% | 1015.9 hPa | 0 mm | - | 854 W/m² | - |
| 1777746764 | 20.56° C | 38% | 1015.7 hPa | 0 mm | - | 855 W/m² | - |
| 1777746459 | 20.56° C | 37% | 1015.9 hPa | 0 mm | - | 811 W/m² | - |
| 1777746155 | 20° C | 40% | 1015.9 hPa | 0 mm | - | 813 W/m² | - |
| 1777745852 | 20° C | 36% | 1016 hPa | 0 mm | - | 819 W/m² | - |
| 1777745546 | 20° C | 42% | 1016 hPa | 0 mm | - | 839 W/m² | - |
| 1777745243 | 20° C | 41% | 1016.2 hPa | 0 mm | - | 822 W/m² | - |
| 1777744940 | 20° C | 45% | 1016.2 hPa | 0 mm | - | 826 W/m² | - |
| 1777744639 | 20° C | 41% | 1016 hPa | 0 mm | - | 797 W/m² | - |
| 1777744334 | 19.44° C | 44% | 1016.4 hPa | 0 mm | - | 790 W/m² | - |
| 1777744032 | 20° C | 43% | 1016.2 hPa | 0 mm | - | 794 W/m² | - |
| 1777743729 | 19.44° C | 43% | 1016.1 hPa | 0 mm | - | 793 W/m² | - |
| 1777743425 | 19.44° C | 45% | 1016.6 hPa | 0 mm | - | 806 W/m² | - |
| 1777743123 | 18.89° C | 40% | 1016.5 hPa | 0 mm | - | 804 W/m² | - |
| 1777742820 | 18.89° C | 41% | 1016.5 hPa | 0 mm | - | 783 W/m² | - |
| 1777742516 | 18.89° C | 43% | 1016.6 hPa | 0 mm | - | 781 W/m² | - |
| 1777742212 | 18.89° C | 42% | 1016.7 hPa | 0 mm | - | 784 W/m² | - |
| 1777741909 | 18.89° C | 41% | 1016.8 hPa | 0 mm | - | 778 W/m² | - |
| 1777741606 | 18.89° C | 45% | 1016.7 hPa | 0 mm | - | 758 W/m² | - |
| 1777741304 | 19.44° C | 44% | 1016.9 hPa | 0 mm | - | 765 W/m² | - |
| 1777741000 | 19.44° C | 44% | 1016.6 hPa | 0 mm | - | 782 W/m² | - |
| 1777740697 | 18.89° C | 45% | 1016.8 hPa | 0 mm | - | 789 W/m² | - |
* Rain latest hour (hover to see other rain measurements)
** Current wind speed in m/s (hover to see current wind gust speed)